Time,TemperatureF,DewpointF,PressureIn,WindDirection,WindDirectionDegrees,WindSpeedMPH,WindSpeedGustMPH,Humidity,HourlyPrecipIn,Conditions,Clouds,dailyrainin,SoftwareType,DateUTC
2013-01-31 00:00:00,32.2,20.9,28.91,SW,225,5.6,5.6,63,0.00,,,0.29,WUHU21623XXSP,2013-01-31 05:00:00,
2013-01-31 00:01:00,32.2,20.9,28.91,SW,225,5.6,5.6,63,0.00,,,0.29,WUHU21623XXSP,2013-01-31 05:01:00,
2013-01-31 00:02:00,32.2,20.9,28.91,SW,225,5.6,5.6,63,0.00,,,0.29,WUHU21623XXSP,2013-01-31 05:02:00,
2013-01-31 00:07:00,32.2,20.9,28.91,SW,225,5.6,5.6,63,0.00,,,0.00,WUHU21623XXSP,2013-01-31 05:07:00,
2013-01-31 00:25:00,30.9,13.2,28.93,SW,225,4.3,4.3,48,0.00,,,0.00,WUHU21623XXSP,2013-01-31 05:25:00,
2013-01-31 00:30:00,30.7,13.0,28.94,SW,225,5.4,5.4,48,0.00,,,0.00,WUHU21623XXSP,2013-01-31 05:30:00,
2013-01-31 00:35:00,30.4,12.7,28.94,SW,225,1.6,5.4,48,0.00,,,0.00,WUHU21623XXSP,2013-01-31 05:35:00,
2013-01-31 00:41:00,30.0,12.3,28.95,SW,225,5.1,5.1,48,0.00,,,0.00,WUHU21623XXSP,2013-01-31 05:41:00,
2013-01-31 00:46:00,29.8,12.2,28.95,SW,225,5.4,5.4,48,0.00,,,0.00,WUHU21623XXSP,2013-01-31 05:46:00,
2013-01-31 00:51:00,29.7,12.1,28.96,SW,225,6.9,6.9,48,0.00,,,0.00,WUHU21623XXSP,2013-01-31 05:51:00,
2013-01-31 00:56:00,29.5,11.9,28.96,SW,225,4.0,6.9,48,0.00,,,0.00,WUHU21623XXSP,2013-01-31 05:56:00,
2013-01-31 01:01:00,29.3,11.7,28.96,SW,225,5.8,6.5,48,0.00,,,0.00,WUHU21623XXSP,2013-01-31 06:01:00,
2013-01-31 01:06:00,28.9,11.3,28.97,SW,225,3.6,6.5,48,0.00,,,0.00,WUHU21623XXSP,2013-01-31 06:06:00,
2013-01-31 01:11:00,28.6,11.0,28.97,SW,225,11.0,11.0,48,0.00,,,0.00,WUHU21623XXSP,2013-01-31 06:11:00,
2013-01-31 01:16:00,28.2,10.7,28.98,SW,225,5.4,11.0,48,0.00,,,0.00,WUHU21623XXSP,2013-01-31 06:16:00,
2013-01-31 01:21:00,27.9,10.4,28.99,SW,225,0.0,5.4,48,0.00,,,0.00,WUHU21623XXSP,2013-01-31 06:21:00,
2013-01-31 01:26:00,27.5,10.0,28.99,SW,225,5.6,5.6,48,0.00,,,0.00,WUHU21623XXSP,2013-01-31 06:26:00,
2013-01-31 01:31:00,27.3,9.8,28.99,SW,225,4.0,5.6,48,0.00,,,0.00,WUHU21623XXSP,2013-01-31 06:31:00,
2013-01-31 01:36:00,27.0,9.6,29.00,SW,225,0.0,4.0,48,0.00,,,0.00,WUHU21623XXSP,2013-01-31 06:36:00,
2013-01-31 01:41:00,26.8,9.4,29.00,SW,225,3.6,3.6,48,0.00,,,0.00,WUHU21623XXSP,2013-01-31 06:41:00,
2013-01-31 01:46:00,26.8,9.4,29.00,SW,225,2.9,6.3,48,0.00,,,0.00,WUHU21623XXSP,2013-01-31 06:46:00,
2013-01-31 01:51:00,26.1,8.7,29.01,SW,225,2.9,6.3,48,0.00,,,0.00,WUHU21623XXSP,2013-01-31 06:51:00,
2013-01-31 01:56:00,25.7,8.4,29.01,SW,225,2.7,2.9,48,0.00,,,0.00,WUHU21623XXSP,2013-01-31 06:56:00,
2013-01-31 02:01:00,25.3,8.0,29.01,SW,225,3.6,7.2,48,0.00,,,0.00,WUHU21623XXSP,2013-01-31 07:01:00,
2013-01-31 02:06:00,25.3,8.0,29.02,SW,225,1.8,7.2,48,0.00,,,0.00,WUHU21623XXSP,2013-01-31 07:06:00,
2013-01-31 02:11:00,25.3,8.0,29.02,SW,225,5.8,5.8,48,0.00,,,0.00,WUHU21623XXSP,2013-01-31 07:11:00,
2013-01-31 02:16:00,25.5,8.2,29.03,SW,225,4.5,5.8,48,0.00,,,0.00,WUHU21623XXSP,2013-01-31 07:16:00,
2013-01-31 02:21:00,25.3,8.0,29.04,SW,225,6.0,6.0,48,0.00,,,0.00,WUHU21623XXSP,2013-01-31 07:21:00,
2013-01-31 02:26:00,25.2,7.9,29.04,SW,225,0.7,6.0,48,0.00,,,0.00,WUHU21623XXSP,2013-01-31 07:26:00,
2013-01-31 02:31:00,25.0,7.7,29.05,SW,225,4.9,7.2,48,0.00,,,0.00,WUHU21623XXSP,2013-01-31 07:31:00,
2013-01-31 02:36:00,25.0,7.7,29.06,SW,225,8.5,8.5,48,0.00,,,0.00,WUHU21623XXSP,2013-01-31 07:36:00,
2013-01-31 02:41:00,25.0,7.7,29.06,SW,225,5.8,8.5,48,0.00,,,0.00,WUHU21623XXSP,2013-01-31 07:41:00,
2013-01-31 02:46:00,24.6,7.4,29.06,SW,225,0.0,5.8,48,0.00,,,0.00,WUHU21623XXSP,2013-01-31 07:46:00,
2013-01-31 02:51:00,24.6,7.4,29.06,SW,225,0.4,5.8,48,0.00,,,0.00,WUHU21623XXSP,2013-01-31 07:51:00,
2013-01-31 02:56:00,24.4,7.2,29.07,SW,225,5.4,5.8,48,0.00,,,0.00,WUHU21623XXSP,2013-01-31 07:56:00,
2013-01-31 03:01:00,24.4,7.2,29.07,SW,225,3.6,5.4,48,0.00,,,0.00,WUHU21623XXSP,2013-01-31 08:01:00,
2013-01-31 03:06:00,24.4,7.2,29.07,SW,225,5.1,6.3,48,0.00,,,0.00,WUHU21623XXSP,2013-01-31 08:06:00,
2013-01-31 03:11:00,24.4,7.2,29.07,SW,225,6.0,6.3,48,0.00,,,0.00,WUHU21623XXSP,2013-01-31 08:11:00,
2013-01-31 03:16:00,24.3,7.1,29.07,SW,225,0.0,6.0,48,0.00,,,0.00,WUHU21623XXSP,2013-01-31 08:16:00,
2013-01-31 03:21:00,24.3,7.1,29.08,SW,225,2.0,2.5,48,0.00,,,0.00,WUHU21623XXSP,2013-01-31 08:21:00,
2013-01-31 03:26:00,24.3,7.1,29.08,WNW,292,9.4,9.4,48,0.00,,,0.00,WUHU21623XXSP,2013-01-31 08:26:00,
2013-01-31 03:31:00,24.1,6.9,29.08,North,0,5.1,9.4,48,0.00,,,0.00,WUHU21623XXSP,2013-01-31 08:31:00,
2013-01-31 03:36:00,24.3,7.1,29.08,North,0,2.5,5.1,48,0.00,,,0.00,WUHU21623XXSP,2013-01-31 08:36:00,
2013-01-31 03:41:00,23.9,6.7,29.09,WSW,247,3.8,3.8,48,0.00,,,0.00,WUHU21623XXSP,2013-01-31 08:41:00,
2013-01-31 03:46:00,23.9,6.7,29.09,NNE,22,1.3,5.4,48,0.00,,,0.00,WUHU21623XXSP,2013-01-31 08:46:00,
2013-01-31 03:51:00,23.7,6.5,29.09,SW,225,4.7,9.4,48,0.00,,,0.00,WUHU21623XXSP,2013-01-31 08:51:00,
2013-01-31 03:56:00,23.7,6.5,29.09,WNW,292,5.8,9.4,48,0.00,,,0.00,WUHU21623XXSP,2013-01-31 08:56:00,
2013-01-31 04:01:00,23.7,6.5,29.10,North,0,12.5,12.5,48,0.00,,,0.00,WUHU21623XXSP,2013-01-31 09:01:00,
2013-01-31 04:07:00,23.5,6.3,29.10,NW,315,3.8,12.5,48,0.00,,,0.00,WUHU21623XXSP,2013-01-31 09:07:00,
2013-01-31 04:12:00,23.4,6.3,29.10,NW,315,2.9,5.1,48,0.00,,,0.00,WUHU21623XXSP,2013-01-31 09:12:00,
2013-01-31 04:17:00,23.2,6.1,29.11,West,270,3.6,5.4,48,0.00,,,0.00,WUHU21623XXSP,2013-01-31 09:17:00,
2013-01-31 04:22:00,23.2,6.1,29.11,West,270,4.0,5.4,48,0.00,,,0.00,WUHU21623XXSP,2013-01-31 09:22:00,
2013-01-31 04:27:00,22.8,5.7,29.12,SW,225,4.3,6.0,48,0.00,,,0.00,WUHU21623XXSP,2013-01-31 09:27:00,
2013-01-31 04:32:00,22.8,5.7,29.12,WSW,247,5.8,6.0,48,0.00,,,0.00,WUHU21623XXSP,2013-01-31 09:32:00,
2013-01-31 04:37:00,22.6,5.5,29.12,WSW,247,4.3,6.9,48,0.00,,,0.00,WUHU21623XXSP,2013-01-31 09:37:00,
2013-01-31 04:42:00,22.6,5.5,29.12,West,270,2.2,6.9,48,0.00,,,0.00,WUHU21623XXSP,2013-01-31 09:42:00,
2013-01-31 04:47:00,22.6,5.5,29.12,WNW,292,3.6,3.8,48,0.00,,,0.00,WUHU21623XXSP,2013-01-31 09:47:00,
2013-01-31 04:52:00,22.6,5.5,29.12,WNW,292,4.0,4.0,48,0.00,,,0.00,WUHU21623XXSP,2013-01-31 09:52:00,
2013-01-31 04:57:00,22.5,5.4,29.13,South,180,5.1,5.1,48,0.00,,,0.00,WUHU21623XXSP,2013-01-31 09:57:00,
2013-01-31 05:02:00,22.5,5.4,29.13,WNW,292,2.0,6.7,48,0.00,,,0.00,WUHU21623XXSP,2013-01-31 10:02:00,
2013-01-31 05:07:00,22.6,5.5,29.13,WSW,247,4.7,6.7,48,0.00,,,0.00,WUHU21623XXSP,2013-01-31 10:07:00,
2013-01-31 05:12:00,22.3,5.2,29.13,West,270,4.7,4.7,48,0.00,,,0.00,WUHU21623XXSP,2013-01-31 10:12:00,
2013-01-31 05:17:00,22.3,5.2,29.14,WSW,247,4.3,4.7,48,0.00,,,0.00,WUHU21623XXSP,2013-01-31 10:17:00,
2013-01-31 05:22:00,22.1,5.1,29.14,West,270,0.0,4.3,48,0.00,,,0.00,WUHU21623XXSP,2013-01-31 10:22:00,
2013-01-31 05:27:00,22.1,5.1,29.15,SSW,202,2.5,3.6,48,0.00,,,0.00,WUHU21623XXSP,2013-01-31 10:27:00,
2013-01-31 05:31:00,21.9,4.9,29.15,SW,225,4.9,5.1,48,0.00,,,0.00,WUHU21623XXSP,2013-01-31 10:31:00,
2013-01-31 05:36:00,21.9,4.9,29.16,NNW,337,4.5,5.1,48,0.00,,,0.00,WUHU21623XXSP,2013-01-31 10:36:00,
2013-01-31 05:41:00,21.7,4.7,29.16,SW,225,4.7,6.3,48,0.00,,,0.00,WUHU21623XXSP,2013-01-31 10:41:00,
2013-01-31 05:47:00,21.9,4.9,29.16,WNW,292,3.6,6.3,48,0.00,,,0.00,WUHU21623XXSP,2013-01-31 10:47:00,
2013-01-31 05:52:00,21.7,4.7,29.17,WNW,292,5.1,5.6,48,0.00,,,0.00,WUHU21623XXSP,2013-01-31 10:52:00,
2013-01-31 05:57:00,21.6,4.6,29.17,SW,225,8.9,8.9,48,0.00,,,0.00,WUHU21623XXSP,2013-01-31 10:57:00,
2013-01-31 06:02:00,21.6,4.6,29.17,WNW,292,6.0,8.9,48,0.00,,,0.00,WUHU21623XXSP,2013-01-31 11:02:00,
2013-01-31 06:07:00,21.6,4.6,29.17,West,270,4.9,6.0,48,0.00,,,0.00,WUHU21623XXSP,2013-01-31 11:07:00,
2013-01-31 06:12:00,21.4,4.4,29.18,SW,225,3.8,6.5,48,0.00,,,0.00,WUHU21623XXSP,2013-01-31 11:12:00,
2013-01-31 06:17:00,21.4,4.4,29.18,West,270,5.6,6.5,48,0.00,,,0.00,WUHU21623XXSP,2013-01-31 11:17:00,
2013-01-31 06:22:00,21.2,4.2,29.18,WSW,247,1.8,5.6,48,0.00,,,0.00,WUHU21623XXSP,2013-01-31 11:22:00,
2013-01-31 06:27:00,21.0,4.0,29.18,WSW,247,2.9,9.2,48,0.00,,,0.00,WUHU21623XXSP,2013-01-31 11:27:00,
2013-01-31 06:32:00,20.8,3.9,29.18,WNW,292,5.4,9.2,48,0.00,,,0.00,WUHU21623XXSP,2013-01-31 11:32:00,
2013-01-31 06:37:00,21.0,4.0,29.19,West,270,4.7,5.4,48,0.00,,,0.00,WUHU21623XXSP,2013-01-31 11:37:00,
2013-01-31 06:42:00,21.0,4.0,29.19,WSW,247,3.6,6.0,48,0.00,,,0.00,WUHU21623XXSP,2013-01-31 11:42:00,
2013-01-31 06:47:00,21.2,4.2,29.19,WSW,247,3.4,6.0,48,0.00,,,0.00,WUHU21623XXSP,2013-01-31 11:47:00,
2013-01-31 06:52:00,21.4,4.4,29.20,WSW,247,3.8,8.1,48,0.00,,,0.00,WUHU21623XXSP,2013-01-31 11:52:00,
2013-01-31 06:57:00,21.4,4.4,29.20,North,0,4.3,8.1,48,0.00,,,0.00,WUHU21623XXSP,2013-01-31 11:57:00,
2013-01-31 07:02:00,21.4,4.4,29.20,WNW,292,2.2,4.3,48,0.00,,,0.00,WUHU21623XXSP,2013-01-31 12:02:00,
2013-01-31 07:07:00,21.2,4.2,29.20,West,270,3.4,4.3,48,0.00,,,0.00,WUHU21623XXSP,2013-01-31 12:07:00,
2013-01-31 07:12:00,21.0,4.0,29.20,WNW,292,4.5,4.5,48,0.00,,,0.00,WUHU21623XXSP,2013-01-31 12:12:00,
2013-01-31 07:17:00,20.7,3.8,29.20,WNW,292,5.1,5.1,48,0.00,,,0.00,WUHU21623XXSP,2013-01-31 12:17:00,
2013-01-31 07:22:00,20.7,3.8,29.21,SSW,202,4.7,5.1,48,0.00,,,0.00,WUHU21623XXSP,2013-01-31 12:22:00,
2013-01-31 07:27:00,20.5,3.6,29.22,ENE,67,0.0,4.7,48,0.00,,,0.00,WUHU21623XXSP,2013-01-31 12:27:00,
2013-01-31 07:32:00,20.5,3.6,29.22,West,270,9.6,9.6,48,0.00,,,0.00,WUHU21623XXSP,2013-01-31 12:32:00,
2013-01-31 07:37:00,20.3,3.4,29.22,West,270,0.0,9.6,48,0.00,,,0.00,WUHU21623XXSP,2013-01-31 12:37:00,
2013-01-31 07:42:00,20.3,3.4,29.22,WSW,247,0.0,8.3,48,0.00,,,0.00,WUHU21623XXSP,2013-01-31 12:42:00,
2013-01-31 07:47:00,20.3,3.4,29.23,WNW,292,1.3,4.5,48,0.00,,,0.00,WUHU21623XXSP,2013-01-31 12:47:00,
2013-01-31 07:52:00,20.1,3.2,29.24,NW,315,0.0,5.1,48,0.00,,,0.00,WUHU21623XXSP,2013-01-31 12:52:00,
2013-01-31 07:57:00,19.9,3.0,29.24,West,270,1.8,5.1,48,0.00,,,0.00,WUHU21623XXSP,2013-01-31 12:57:00,
2013-01-31 08:02:00,19.8,2.9,29.23,West,270,4.7,4.7,48,0.00,,,0.00,WUHU21623XXSP,2013-01-31 13:02:00,
2013-01-31 17:31:00,18.3,1.6,29.43,WSW,247,9.4,9.4,48,0.00,,,0.00,WUHU21623XXSP,2013-01-31 22:31:00,
2013-01-31 17:36:00,18.3,1.6,29.44,SW,225,3.8,9.4,48,0.00,,,0.00,WUHU21623XXSP,2013-01-31 22:36:00,
2013-01-31 17:41:00,18.1,1.4,29.44,WNW,292,3.6,9.4,48,0.00,,,0.00,WUHU21623XXSP,2013-01-31 22:41:00,
2013-01-31 17:46:00,18.0,1.3,29.44,WNW,292,0.0,4.0,48,0.00,,,0.00,WUHU21623XXSP,2013-01-31 22:46:00,
2013-01-31 17:51:00,17.8,1.1,29.44,West,270,3.1,4.3,48,0.00,,,0.00,WUHU21623XXSP,2013-01-31 22:51:00,
2013-01-31 17:56:00,17.6,0.9,29.44,SW,225,0.0,5.4,48,0.00,,,0.00,WUHU21623XXSP,2013-01-31 22:56:00,
2013-01-31 18:01:00,17.8,1.1,29.44,West,270,0.0,5.4,48,0.00,,,0.00,WUHU21623XXSP,2013-01-31 23:01:00,
2013-01-31 18:06:00,17.4,0.7,29.45,WNW,292,4.0,6.0,48,0.00,,,0.00,WUHU21623XXSP,2013-01-31 23:06:00,
2013-01-31 18:11:00,17.2,0.5,29.45,WSW,247,0.0,6.0,48,0.00,,,0.00,WUHU21623XXSP,2013-01-31 23:11:00,
2013-01-31 18:16:00,17.2,0.5,29.45,WNW,292,0.0,5.4,48,0.00,,,0.00,WUHU21623XXSP,2013-01-31 23:16:00,
2013-01-31 18:21:00,17.1,0.4,29.46,WNW,292,3.4,5.4,48,0.00,,,0.00,WUHU21623XXSP,2013-01-31 23:21:00,
2013-01-31 18:26:00,17.1,0.4,29.46,West,270,1.8,3.4,48,0.00,,,0.00,WUHU21623XXSP,2013-01-31 23:26:00,
2013-01-31 18:31:00,17.1,0.4,29.46,West,270,5.1,5.1,48,0.00,,,0.00,WUHU21623XXSP,2013-01-31 23:31:00,
2013-01-31 18:36:00,17.1,0.4,29.46,West,270,0.0,5.1,48,0.00,,,0.00,WUHU21623XXSP,2013-01-31 23:36:00,
2013-01-31 18:41:00,17.2,0.5,29.46,West,270,0.0,2.7,48,0.00,,,0.00,WUHU21623XXSP,2013-01-31 23:41:00,
2013-01-31 18:46:00,17.2,0.5,29.47,North,0,4.3,4.3,48,0.00,,,0.00,WUHU21623XXSP,2013-01-31 23:46:00,
2013-01-31 18:51:00,17.2,0.5,29.47,West,270,0.0,4.3,48,0.00,,,0.00,WUHU21623XXSP,2013-01-31 23:51:00,
2013-01-31 18:56:00,17.1,0.4,29.48,West,270,2.2,2.9,48,0.00,,,0.00,WUHU21623XXSP,2013-01-31 23:56:00,
2013-01-31 19:01:00,16.9,0.3,29.48,SW,225,3.1,3.1,48,0.00,,,0.00,WUHU21623XXSP,2013-02-01 00:01:00,
2013-01-31 19:06:00,16.7,0.1,29.48,WNW,292,1.8,5.6,48,0.00,,,0.00,WUHU21623XXSP,2013-02-01 00:06:00,
2013-01-31 19:11:00,16.5,-0.1,29.48,West,270,2.7,5.6,48,0.00,,,0.00,WUHU21623XXSP,2013-02-01 00:11:00,
2013-01-31 19:16:00,16.5,-0.1,29.48,WNW,292,1.8,2.7,48,0.00,,,0.00,WUHU21623XXSP,2013-02-01 00:16:00,
2013-01-31 19:21:00,16.3,-0.3,29.48,West,270,1.6,1.8,48,0.00,,,0.00,WUHU21623XXSP,2013-02-01 00:21:00,
2013-01-31 19:26:00,16.3,-0.3,29.49,West,270,4.5,4.5,48,0.00,,,0.00,WUHU21623XXSP,2013-02-01 00:26:00,
2013-01-31 19:31:00,16.2,-0.4,29.49,WNW,292,0.0,6.5,48,0.00,,,0.00,WUHU21623XXSP,2013-02-01 00:31:00,
2013-01-31 19:36:00,16.2,-0.4,29.49,West,270,0.0,6.5,48,0.00,,,0.00,WUHU21623XXSP,2013-02-01 00:36:00,
2013-01-31 19:41:00,16.2,-0.4,29.49,WNW,292,0.7,0.7,48,0.00,,,0.00,WUHU21623XXSP,2013-02-01 00:41:00,
2013-01-31 19:46:00,16.3,-0.3,29.50,West,270,3.1,4.3,48,0.00,,,0.00,WUHU21623XXSP,2013-02-01 00:46:00,
2013-01-31 19:51:00,16.3,-0.3,29.50,WNW,292,0.0,4.3,48,0.00,,,0.00,WUHU21623XXSP,2013-02-01 00:51:00,
2013-01-31 19:56:00,16.3,-0.3,29.50,WNW,292,1.3,2.5,48,0.00,,,0.00,WUHU21623XXSP,2013-02-01 00:56:00,
2013-01-31 20:01:00,16.2,-0.4,29.50,WNW,292,1.8,2.5,48,0.00,,,0.00,WUHU21623XXSP,2013-02-01 01:01:00,
2013-01-31 20:06:00,16.2,-0.4,29.50,West,270,0.0,3.6,48,0.00,,,0.00,WUHU21623XXSP,2013-02-01 01:06:00,
2013-01-31 20:11:00,16.2,-0.4,29.50,WSW,247,9.2,9.2,48,0.00,,,0.00,WUHU21623XXSP,2013-02-01 01:11:00,
2013-01-31 20:16:00,16.2,-0.4,29.50,WNW,292,0.0,9.2,48,0.00,,,0.00,WUHU21623XXSP,2013-02-01 01:16:00,
2013-01-31 20:21:00,16.2,-0.4,29.51,West,270,3.4,4.5,48,0.00,,,0.00,WUHU21623XXSP,2013-02-01 01:21:00,
2013-01-31 20:26:00,16.0,-0.6,29.51,WSW,247,2.5,3.4,48,0.00,,,0.00,WUHU21623XXSP,2013-02-01 01:26:00,
2013-01-31 20:31:00,16.0,-0.6,29.51,WSW,247,3.8,3.8,48,0.00,,,0.00,WUHU21623XXSP,2013-02-01 01:31:00,
2013-01-31 20:36:00,16.0,-0.6,29.51,WNW,292,1.6,3.8,48,0.00,,,0.00,WUHU21623XXSP,2013-02-01 01:36:00,
2013-01-31 20:41:00,16.0,-0.6,29.51,NNW,337,5.8,5.8,48,0.00,,,0.00,WUHU21623XXSP,2013-02-01 01:41:00,
2013-01-31 20:46:00,16.0,-0.6,29.51,WNW,292,4.5,5.8,48,0.00,,,0.00,WUHU21623XXSP,2013-02-01 01:46:00,
2013-01-31 20:51:00,16.0,-0.6,29.51,West,270,0.0,4.5,48,0.00,,,0.00,WUHU21623XXSP,2013-02-01 01:51:00,
2013-01-31 20:56:00,16.0,-0.6,29.51,West,270,2.9,2.9,48,0.00,,,0.00,WUHU21623XXSP,2013-02-01 01:56:00,
2013-01-31 21:01:00,16.0,-0.6,29.51,West,270,2.5,2.9,48,0.00,,,0.00,WUHU21623XXSP,2013-02-01 02:01:00,
2013-01-31 21:06:00,16.0,-0.6,29.52,WSW,247,1.1,5.8,48,0.00,,,0.00,WUHU21623XXSP,2013-02-01 02:06:00,
2013-01-31 21:11:00,16.0,-0.6,29.52,WNW,292,3.4,5.8,48,0.00,,,0.00,WUHU21623XXSP,2013-02-01 02:11:00,
2013-01-31 21:16:00,16.0,-0.6,29.52,WSW,247,3.1,3.4,48,0.00,,,0.00,WUHU21623XXSP,2013-02-01 02:16:00,
2013-01-31 21:21:00,15.6,-0.9,29.52,West,270,0.4,3.1,48,0.00,,,0.00,WUHU21623XXSP,2013-02-01 02:21:00,
2013-01-31 21:26:00,15.6,-0.9,29.53,WNW,292,1.8,3.1,48,0.00,,,0.00,WUHU21623XXSP,2013-02-01 02:26:00,
2013-01-31 21:31:00,15.6,-0.9,29.52,WNW,292,5.6,5.6,48,0.00,,,0.00,WUHU21623XXSP,2013-02-01 02:31:00,
2013-01-31 21:36:00,15.4,-1.1,29.53,WNW,292,2.5,5.6,48,0.00,,,0.00,WUHU21623XXSP,2013-02-01 02:36:00,
2013-01-31 21:41:00,15.4,-1.1,29.53,WNW,292,0.0,5.1,48,0.00,,,0.00,WUHU21623XXSP,2013-02-01 02:41:00,
2013-01-31 21:46:00,15.4,-1.1,29.53,WNW,292,0.0,5.1,48,0.00,,,0.00,WUHU21623XXSP,2013-02-01 02:46:00,
2013-01-31 21:51:00,15.4,-1.1,29.54,West,270,2.5,3.8,48,0.00,,,0.00,WUHU21623XXSP,2013-02-01 02:51:00,
2013-01-31 21:56:00,15.4,-1.1,29.54,NNE,22,4.0,4.0,48,0.00,,,0.00,WUHU21623XXSP,2013-02-01 02:56:00,
2013-01-31 22:01:00,15.4,-1.1,29.53,WNW,292,5.6,5.6,48,0.00,,,0.00,WUHU21623XXSP,2013-02-01 03:01:00,
2013-01-31 22:06:00,15.3,-1.2,29.54,NNW,337,3.8,5.8,48,0.00,,,0.00,WUHU21623XXSP,2013-02-01 03:06:00,
2013-01-31 22:11:00,15.1,-1.4,29.54,NNW,337,4.0,5.8,48,0.00,,,0.00,WUHU21623XXSP,2013-02-01 03:11:00,
2013-01-31 22:16:00,15.1,-1.4,29.54,WNW,292,5.8,5.8,48,0.00,,,0.00,WUHU21623XXSP,2013-02-01 03:16:00,
2013-01-31 22:21:00,15.1,-1.4,29.54,WNW,292,4.5,5.8,48,0.00,,,0.00,WUHU21623XXSP,2013-02-01 03:21:00,
2013-01-31 22:26:00,15.1,-1.4,29.54,NW,315,0.0,4.5,48,0.00,,,0.00,WUHU21623XXSP,2013-02-01 03:26:00,
2013-01-31 22:31:00,14.9,-1.6,29.54,West,270,0.0,4.3,48,0.00,,,0.00,WUHU21623XXSP,2013-02-01 03:31:00,
2013-01-31 22:36:00,14.9,-1.6,29.54,NNW,337,0.0,2.0,48,0.00,,,0.00,WUHU21623XXSP,2013-02-01 03:36:00,
2013-01-31 22:42:00,14.9,-1.6,29.54,South,180,0.0,4.9,48,0.00,,,0.00,WUHU21623XXSP,2013-02-01 03:42:00,
2013-01-31 22:47:00,14.9,-1.6,29.54,NNW,337,3.4,4.9,48,0.00,,,0.00,WUHU21623XXSP,2013-02-01 03:47:00,
2013-01-31 22:52:00,14.9,-1.6,29.54,WSW,247,2.0,3.4,48,0.00,,,0.00,WUHU21623XXSP,2013-02-01 03:52:00,
2013-01-31 22:56:00,14.9,-1.6,29.54,West,270,0.0,3.4,48,0.00,,,0.00,WUHU21623XXSP,2013-02-01 03:56:00,
2013-01-31 23:01:00,14.9,-1.6,29.54,West,270,0.0,0.0,48,0.00,,,0.00,WUHU21623XXSP,2013-02-01 04:01:00,
2013-01-31 23:06:00,14.7,-1.8,29.54,West,270,0.0,0.0,48,0.00,,,0.00,WUHU21623XXSP,2013-02-01 04:06:00,
2013-01-31 23:12:00,14.7,-1.8,29.54,West,270,0.0,0.0,48,0.00,,,0.00,WUHU21623XXSP,2013-02-01 04:12:00,
2013-01-31 23:17:00,14.5,-2.0,29.54,WNW,292,0.0,0.0,48,0.00,,,0.00,WUHU21623XXSP,2013-02-01 04:17:00,
2013-01-31 23:22:00,14.7,-1.8,29.54,West,270,0.0,0.0,48,0.00,,,0.00,WUHU21623XXSP,2013-02-01 04:22:00,
2013-01-31 23:27:00,14.5,-2.0,29.55,WSW,247,0.0,0.0,48,0.00,,,0.00,WUHU21623XXSP,2013-02-01 04:27:00,
2013-01-31 23:32:00,14.5,-2.0,29.54,SW,225,0.0,0.0,48,0.00,,,0.00,WUHU21623XXSP,2013-02-01 04:32:00,
2013-01-31 23:37:00,14.4,-2.0,29.55,North,0,2.0,2.0,48,0.00,,,0.00,WUHU21623XXSP,2013-02-01 04:37:00,
2013-01-31 23:42:00,14.2,-2.2,29.55,West,270,0.0,2.0,48,0.00,,,0.00,WUHU21623XXSP,2013-02-01 04:42:00,
2013-01-31 23:47:00,14.4,-2.0,29.55,WNW,292,0.0,0.0,48,0.00,,,0.00,WUHU21623XXSP,2013-02-01 04:47:00,
2013-01-31 23:52:00,14.2,-2.2,29.56,West,270,0.0,0.0,48,0.00,,,0.00,WUHU21623XXSP,2013-02-01 04:52:00,
2013-01-31 23:57:00,14.2,-2.2,29.56,WSW,247,0.0,3.4,48,0.00,,,0.00,WUHU21623XXSP,2013-02-01 04:57:00,